Thursday, January 18, 2018, 11:04 PM EST
Back to Local

KART, Watertown International Airport

Location: Dexter, NY, United States Lat: 43.983
Local Time: 11:04 PM EST ( 4:04 GMT) Lon: -76.033
Time Zone: US/Eastern Elev: 324 ft

Show me the last for .
Show Decoded

2018-01-18 22:20 METAR KART 190320Z AUTO 24010KT 5SM BR OVC015 M03/M05 A2996 RMK AO2 T10331050
                 TSNO $ =
2018-01-18 21:56 METAR KART 190256Z AUTO 24010KT 5SM BR OVC014 M03/M05 A2996 RMK AO2 SLP152 60000
                 T10331050 58004 TSNO $ =
2018-01-18 20:56 METAR KART 190156Z AUTO 23010G18KT 4SM BR OVC013 M03/M04 A2997 RMK AO2 UPB17E48
                 SLP155 P0000 T10331044 TSNO $ =
2018-01-18 20:53 METAR KART 190153Z AUTO 24009G18KT 4SM BR OVC013 M03/M04 A2997 RMK AO2 UPB17E48
                 P0000 TSNO $ =
2018-01-18 19:56 METAR KART 190056Z AUTO 24008KT 4SM BR BKN015 OVC022 M03/M04 A2997 RMK AO2
                 UPB35E39SNE21B29E35B39E41 SLP157 P0000 T10331044 TSNO $ =
2018-01-18 19:21 METAR KART 190021Z AUTO 24010G17KT 3SM BR OVC013 M03/M04 A2998 RMK AO2 SNE21
                 P0000 T10331044 TSNO $ =
2018-01-18 19:14 METAR KART 190014Z AUTO 24010G17KT 2 1/2SM -SN BR OVC013 M03/M04 A2998 RMK AO2
                 P0000 T10331044 TSNO $ =
2018-01-18 18:56 METAR KART 182356Z AUTO 23012G19KT 3SM -SN BR OVC013 M03/M05 A2998 RMK AO2
                 SLP161 P0000 60000 T10331050 11028 21039 53001 TSNO $ =
2018-01-18 18:12 METAR KART 182312Z AUTO 23008KT 3SM -SN BR BKN013 OVC020 M04/M05 A2998 RMK AO2
                 P0000 T10391050 TSNO $ =
2018-01-18 18:05 METAR KART 182305Z AUTO 23012G17KT 2 1/2SM -SN BR SCT010 OVC018 M04/M05 A2997
                 RMK AO2 P0000 T10391050 TSNO $ =
2018-01-18 17:56 METAR KART 182256Z AUTO 23012KT 2SM -SN BR SCT010 BKN014 OVC018 M04/M05 A2997
                 RMK AO2 SLP158 P0000 T10391050 TSNO $ =
2018-01-18 17:45 METAR KART 182245Z AUTO 24013KT 1 1/2SM -SN BR BKN010 BKN015 OVC023 M04/M05
                 A2997 RMK AO2 CIG 007V012 P0000 T10391050 TSNO $ =
2018-01-18 17:33 METAR KART 182233Z AUTO 24013KT 1 1/4SM -SN BR BKN008 OVC023 M04/M05 A2997 RMK
                 AO2 CIG 007V013 P0000 T10391050 TSNO $ =
2018-01-18 16:56 METAR KART 182156Z AUTO 24014G22KT 1SM -SN BR FEW008 OVC025 M04/M05 A2997 RMK
                 AO2 SLP156 P0000 T10391050 TSNO $ =
2018-01-18 15:56 METAR KART 182056Z AUTO 25012G21KT 3/4SM -SN BR FEW009 OVC016 M04/M05 A2998 RMK
                 AO2 SLP158 P0000 60000 T10391050 53002 TSNO $ =
2018-01-18 15:26 METAR KART 182026Z AUTO 24013KT 1/2SM -SN FZFG FEW009 OVC016 M03/M04 A2997 RMK
                 AO2 P0000 T10331044 TSNO =
2018-01-18 15:09 METAR KART 182009Z AUTO 25013G21KT 3/4SM -SN BR OVC014 M03/M04 A2997 RMK AO2
                 P0000 T10331044 TSNO =
2018-01-18 14:56 METAR KART 181956Z AUTO 25013G17KT 1 1/4SM -SN BR OVC015 M03/M05 A2997 RMK AO2
                 SNB09E18B50 SLP156 P0000 T10331050 TSNO =
2018-01-18 14:52 METAR KART 181952Z AUTO 25012G17KT 1 3/4SM -SN BR OVC015 M03/M05 A2997 RMK AO2
                 SNB09E18B50 P0000 TSNO =
2018-01-18 14:25 METAR KART 181925Z AUTO 25009KT 4SM BR BKN016 OVC021 M03/M05 A2997 RMK AO2
                 SNB09E18 P0000 T10281050 TSNO =
2018-01-18 14:14 METAR KART 181914Z AUTO 26012KT 2SM -SN BR BKN016 BKN022 OVC040 M03/M05 A2997
                 RMK AO2 SNB09 P0000 T10281050 TSNO =
2018-01-18 13:56 METAR KART 181856Z AUTO 26012KT 4SM BR BKN016 BKN022 OVC041 M03/M05 A2997 RMK
                 AO2 SNE30 SLP155 P0000 T10281050 TSNO =
2018-01-18 13:33 METAR KART 181833Z AUTO 26009KT 4SM BR BKN015 OVC022 M03/M05 A2997 RMK AO2 SNE30
                 P0000 T10331050 TSNO =
2018-01-18 13:19 METAR KART 181819Z AUTO 26011G18KT 2SM -SN BR BKN015 OVC020 M03/M06 A2997 RMK
                 AO2 P0000 T10331056 TSNO =
2018-01-18 13:08 METAR KART 181808Z AUTO 26010KT 1 1/4SM -SN BR OVC017 M03/M06 A2997 RMK AO2
                 P0000 T10331056 TSNO =
2018-01-18 12:56 METAR KART 181756Z AUTO 26010KT 1/2SM -SN FZFG BKN014 OVC020 M03/M05 A2997 RMK
                 AO2 WSHFT 1734 SLP157 P0000 60000 T10331050 11033 21078 58013 TSNO =
2018-01-18 12:50 METAR KART 181750Z AUTO 26010KT 1/2SM -SN FZFG BKN014 OVC020 M03/M05 A2998 RMK
                 AO2 WSHFT 1734 P0000 TSNO =
2018-01-18 12:43 METAR KART 181743Z AUTO 26010KT 1/2SM SN FZFG OVC016 M03/M05 A2998 RMK AO2 P0000
                 T10331050 TSNO =
2018-01-18 12:33 METAR KART 181733Z AUTO 25009G17KT 210V270 1 1/4SM -SN BR OVC016 M04/M06 A2998
                 RMK AO2 P0000 T10441061 TSNO =
2018-01-18 12:12 METAR KART 181712Z AUTO 17006KT 3/4SM -SN BR OVC016 M07/M08 A2999 RMK AO2 P0000
                 T10671078 TSNO =
2018-01-18 11:56 METAR KART 181656Z AUTO 17006KT 1 1/2SM -SN BR OVC017 M07/M08 A3000 RMK AO2
                 SNB39 SLP165 P0000 T10671083 TSNO =
2018-01-18 11:49 METAR KART 181649Z AUTO 17006KT 1 1/4SM -SN BR OVC017 M07/M08 A2999 RMK AO2
                 SNB39 P0000 T10671078 TSNO =
2018-01-18 11:27 METAR KART 181627Z AUTO 19005KT 2 1/2SM BR OVC017 M07/M08 A3000 RMK AO2
                 T10671083 TSNO =
2018-01-18 10:56 METAR KART 181556Z AUTO 16009KT 3SM BR FEW008 OVC018 M07/M09 A3001 RMK AO2 SNE45
                 SLP171 P0000 T10721089 TSNO =
2018-01-18 10:46 METAR KART 181546Z AUTO 16008KT 2 1/2SM BR FEW008 OVC018 M07/M08 A3001 RMK AO2
                 SNE45 P0000 T10721083 TSNO =
2018-01-18 10:43 METAR KART 181543Z AUTO 17007KT 1 3/4SM -SN BR FEW008 BKN014 OVC020 M07/M08
                 A3001 RMK AO2 P0000 T10721083 TSNO =
2018-01-18 10:32 METAR KART 181532Z AUTO 17006KT 1SM -SN BR BKN008 OVC016 M07/M08 A3001 RMK AO2
                 CIG 006V013 P0000 T10721083 TSNO =
2018-01-18 10:10 METAR KART 181510Z AUTO 17006KT 1/2SM -SN FZFG OVC006 M07/M08 A3001 RMK AO2
                 P0000 T10721083 TSNO =
2018-01-18 09:56 METAR KART 181456Z AUTO 18005KT 1/4SM SN FZFG OVC007 M07/M08 A3001 RMK AO2
                 SLP171 P0000 60000 T10721083 53005 TSNO =
2018-01-18 09:48 METAR KART 181448Z AUTO 19006KT 1/4SM SN FZFG OVC008 M07/M08 A3001 RMK AO2 CIG
                 006V010 P0000 T10721083 TSNO =
2018-01-18 09:36 METAR KART 181436Z AUTO VRB05KT 1/2SM -SN FZFG BKN008 OVC012 M08/M09 A3001 RMK
                 AO2 P0000 T10781089 TSNO =
2018-01-18 09:07 METAR KART 181407Z AUTO 16008KT 1/2SM -SN FZFG OVC011 M08/M09 A3000 RMK AO2
                 P0000 T10781094 TSNO =
2018-01-18 09:03 METAR KART 181403Z AUTO 17007KT 1/4SM SN FZFG BKN009 OVC014 M08/M09 A3000 RMK
                 AO2 P0000 T10781094 TSNO =
2018-01-18 08:56 METAR KART 181356Z AUTO 20007KT 1/4SM SN FZFG BKN010 OVC016 M08/M09 A3000 RMK
                 AO2 SLP168 P0000 T10781094 TSNO =
2018-01-18 08:49 METAR KART 181349Z AUTO 19007KT 1/2SM -SN FZFG BKN010 OVC017 M08/M09 A3000 RMK
                 AO2 P0000 T10781094 TSNO =
2018-01-18 08:31 METAR KART 181331Z AUTO 17006KT 3/4SM -SN BR OVC017 M07/M09 A3000 RMK AO2 P0000
                 T10721094 TSNO =
2018-01-18 08:17 METAR KART 181317Z AUTO 20007KT 1 1/2SM -SN BR OVC017 M08/M10 A3000 RMK AO2
                 P0000 T10781100 TSNO =
2018-01-18 07:56 METAR KART 181256Z AUTO 19009G16KT 2SM -SN BR OVC019 M08/M10 A2999 RMK AO2
                 SLP165 P0000 T10781100 TSNO =
2018-01-18 07:48 METAR KART 181248Z AUTO 18007G18KT 1 3/4SM -SN BR OVC019 M08/M10 A2999 RMK AO2
                 P0000 T10781100 TSNO =
2018-01-18 07:33 METAR KART 181233Z AUTO 19011KT 2SM -SN OVC019 M08/M11 A2999 RMK AO2 P0000
                 T10781106 TSNO =
2018-01-18 06:56 METAR KART 181156Z AUTO 19010KT 3SM -SN OVC018 M08/M11 A2999 RMK AO2 SNB42
                 SLP165 P0000 60000 70002 T10781106 11044 21078 56011 TSNO =
2018-01-18 05:56 METAR KART 181056Z AUTO 18009KT 5SM HZ OVC020 M07/M11 A3000 RMK AO2 SLP166
                 T10721106 TSNO =
2018-01-18 04:56 METAR KART 180956Z AUTO 22013G17KT 7SM OVC022 M04/M07 A3001 RMK AO2 SLP169
                 T10441072 TSNO =
2018-01-18 03:56 METAR KART 180856Z AUTO 23013G20KT 7SM OVC021 M04/M07 A3003 RMK AO2 SLP176
                 T10441067 58009 TSNO =
2018-01-18 02:56 METAR KART 180756Z AUTO 20009KT 9SM OVC018 M07/M10 A3004 RMK AO2 SLP182
                 T10721100 TSNO =
2018-01-18 01:56 METAR KART 180656Z AUTO 19009KT 8SM OVC020 M08/M10 A3005 RMK AO2 SLP184
                 T10781100 TSNO =
2018-01-18 00:56 METAR KART 180556Z AUTO 20008KT 8SM OVC022 M07/M09 A3005 RMK AO2 SLP186 60000
                 T10721094 11056 21072 56023 TSNO =
2018-01-17 23:56 METAR KART 180456Z AUTO 20009KT 8SM OVC019 M07/M09 A3007 RMK AO2 SLP191
                 T10721094 410561111 TSNO =

Support USWX by starting your Amazon purchase here.